createdAt,value
2023-05-05T00:00:02.095Z,101993.44
2023-05-05T00:00:17.437Z,101988.06
2023-05-05T00:00:51.758Z,101995.25
2023-05-05T00:01:04.305Z,101990.84
2023-05-05T00:01:16.882Z,101992.69
2023-05-05T00:01:29.698Z,101986.38
2023-05-05T00:01:42.486Z,101988.16
2023-05-05T00:01:55.409Z,101990.00
2023-05-05T00:02:08.994Z,101992.69
2023-05-05T00:02:21.830Z,101982.91
2023-05-05T00:02:34.514Z,101982.03
2023-05-05T00:02:47.870Z,101982.91
2023-05-05T00:03:00.608Z,101987.41
2023-05-05T00:03:13.304Z,101984.84
2023-05-05T00:03:26.283Z,101994.59
2023-05-05T00:03:39.107Z,101984.84
2023-05-05T00:03:52.311Z,101990.22
2023-05-05T00:04:06.101Z,101987.53
2023-05-05T00:04:22.481Z,101984.84
2023-05-05T00:04:35.097Z,101995.56
2023-05-05T00:04:47.801Z,101984.84
2023-05-05T00:05:00.361Z,101979.47
2023-05-05T00:05:12.923Z,101984.84
2023-05-05T00:05:25.583Z,101982.16
2023-05-05T00:05:39.363Z,101987.53
2023-05-05T00:05:53.094Z,101984.84
2023-05-05T00:06:05.897Z,101988.38
2023-05-05T00:06:18.443Z,101988.38
2023-05-05T00:06:31.529Z,101991.06
2023-05-05T00:06:44.076Z,101987.53
2023-05-05T00:06:58.271Z,101985.69
2023-05-05T00:07:10.812Z,101995.56
2023-05-05T00:07:23.334Z,101979.47
2023-05-05T00:07:35.854Z,101990.22
2023-05-05T00:07:48.473Z,101978.59
2023-05-05T00:08:01.040Z,101986.78
2023-05-05T00:08:13.598Z,101982.16
2023-05-05T00:08:27.123Z,101995.56
2023-05-05T00:08:39.651Z,101989.31
2023-05-05T00:08:52.156Z,101990.22
2023-05-05T00:09:04.927Z,101988.47
2023-05-05T00:09:17.515Z,101991.16
2023-05-05T00:09:30.041Z,101997.50
2023-05-05T00:09:42.923Z,101983.13
2023-05-05T00:09:56.416Z,101989.31
2023-05-05T00:10:09.990Z,101987.63
2023-05-05T00:10:22.693Z,101989.44
2023-05-05T00:10:35.287Z,101991.16
2023-05-05T00:10:48.394Z,101988.47
2023-05-05T00:11:01.072Z,101986.78
2023-05-05T00:11:13.664Z,101992.13
2023-05-05T00:11:27.318Z,101991.16
2023-05-05T00:11:39.850Z,101986.78
2023-05-05T00:11:52.625Z,101985.88
2023-05-05T00:12:05.917Z,101991.16
2023-05-05T00:12:18.435Z,101993.00
2023-05-05T00:12:31.066Z,101992.13
2023-05-05T00:12:43.721Z,101990.31
2023-05-05T00:12:56.869Z,101994.81
2023-05-05T00:13:10.578Z,101990.31
2023-05-05T00:13:23.690Z,101988.47
2023-05-05T00:13:36.329Z,101992.91
2023-05-05T00:13:49.227Z,101984.84
2023-05-05T00:14:01.778Z,101992.91
2023-05-05T00:14:14.447Z,101995.56
2023-05-05T00:14:27.010Z,101984.84
2023-05-05T00:14:39.605Z,101997.28
2023-05-05T00:14:53.169Z,101984.84
2023-05-05T00:15:07.372Z,101990.09
2023-05-05T00:15:21.415Z,101990.97
2023-05-05T00:15:34.033Z,101995.34
2023-05-05T00:15:49.177Z,101990.00
2023-05-05T00:16:01.757Z,101990.84
2023-05-05T00:16:14.627Z,101989.03
2023-05-05T00:16:28.850Z,101984.53
2023-05-05T00:16:41.495Z,101984.41
2023-05-05T00:16:54.098Z,101996.97
2023-05-05T00:17:06.818Z,101991.59
2023-05-05T00:17:19.558Z,101988.81
2023-05-05T00:17:32.148Z,101995.13
2023-05-05T00:17:44.724Z,101989.78
2023-05-05T00:17:57.317Z,101997.81
2023-05-05T00:18:10.408Z,101995.13
2023-05-05T00:18:22.972Z,102006.75
2023-05-05T00:18:36.584Z,102004.91
2023-05-05T00:18:49.197Z,101996.88
2023-05-05T00:19:01.801Z,102001.38
2023-05-05T00:19:14.342Z,101991.50
2023-05-05T00:19:26.834Z,101989.78
2023-05-05T00:19:39.410Z,102001.38
2023-05-05T00:19:52.388Z,101996.97
2023-05-05T00:20:07.026Z,101999.56
2023-05-05T00:20:21.158Z,101996.88
2023-05-05T00:20:33.737Z,101999.56
2023-05-05T00:20:47.364Z,101991.50
2023-05-05T00:21:00.133Z,101996.88
2023-05-05T00:21:12.732Z,101988.81
2023-05-05T00:21:25.280Z,101993.34
2023-05-05T00:21:37.833Z,101986.13
2023-05-05T00:21:51.393Z,101989.78
2023-05-05T00:22:03.985Z,101990.66
2023-05-05T00:22:16.713Z,101986.13
2023-05-05T00:22:29.262Z,101988.81
2023-05-05T00:22:41.857Z,101991.50
2023-05-05T00:22:54.418Z,101986.13
2023-05-05T00:23:06.928Z,101979.94
2023-05-05T00:23:20.206Z,101987.97
2023-05-05T00:23:33.714Z,101989.78
2023-05-05T00:23:46.561Z,101986.13
2023-05-05T00:23:59.110Z,101987.00
2023-05-05T00:24:11.877Z,101980.78
2023-05-05T00:24:24.506Z,101986.13
2023-05-05T00:24:37.019Z,101985.28
2023-05-05T00:24:49.526Z,101989.78
2023-05-05T00:25:02.042Z,101987.97
2023-05-05T00:25:14.711Z,101996.13
2023-05-05T00:25:29.215Z,101985.38
2023-05-05T00:25:41.916Z,101990.75
2023-05-05T00:25:54.509Z,101986.38
2023-05-05T00:26:07.112Z,101990.84
2023-05-05T00:26:19.937Z,101991.72
2023-05-05T00:26:32.530Z,102000.72
2023-05-05T00:26:46.153Z,101990.00
2023-05-05T00:26:58.900Z,101993.66
2023-05-05T00:27:11.481Z,102001.56
2023-05-05T00:27:24.307Z,102004.38
2023-05-05T00:27:38.885Z,101999.03
2023-05-05T00:27:52.755Z,101999.03
2023-05-05T00:28:05.732Z,101999.03
2023-05-05T00:28:18.225Z,102001.69
2023-05-05T00:28:30.776Z,101999.88
2023-05-05T00:28:44.431Z,102004.38
2023-05-05T00:28:57.231Z,102004.38
2023-05-05T00:29:09.789Z,102004.38
2023-05-05T00:29:22.301Z,101999.97
2023-05-05T00:29:34.812Z,102010.59
2023-05-05T00:29:47.905Z,102007.91
2023-05-05T00:30:00.441Z,102007.91
2023-05-05T00:30:14.525Z,102006.09
2023-05-05T00:30:28.440Z,102009.75
2023-05-05T00:30:41.099Z,102005.25
2023-05-05T00:30:53.785Z,102009.75
2023-05-05T00:31:08.169Z,102006.09
2023-05-05T00:31:21.608Z,102011.44
2023-05-05T00:31:35.302Z,102011.44
2023-05-05T00:31:47.978Z,102013.28
2023-05-05T00:32:00.509Z,102010.59
2023-05-05T00:32:13.228Z,102015.00
2023-05-05T00:32:25.953Z,102008.78
2023-05-05T00:32:38.609Z,102003.41
2023-05-05T00:32:51.625Z,102008.78
2023-05-05T00:33:05.850Z,102011.44
2023-05-05T00:33:18.433Z,102003.41
2023-05-05T00:33:31.230Z,102006.94
2023-05-05T00:33:43.972Z,102006.09
2023-05-05T00:33:56.513Z,102009.63
2023-05-05T00:34:09.045Z,102002.47
2023-05-05T00:34:22.562Z,102007.81
2023-05-05T00:34:35.104Z,101995.25
2023-05-05T00:34:47.909Z,102006.84
2023-05-05T00:35:00.697Z,102006.94
2023-05-05T00:35:13.317Z,102001.56
2023-05-05T00:35:26.988Z,102000.63
2023-05-05T00:35:39.565Z,101992.56
2023-05-05T00:35:52.376Z,101989.03
2023-05-05T00:36:06.151Z,101991.72
2023-05-05T00:36:18.831Z,101990.84
2023-05-05T00:36:31.397Z,101979.25
2023-05-05T00:36:43.994Z,101986.38
2023-05-05T00:36:56.552Z,101981.84
2023-05-05T00:37:09.094Z,101983.69
2023-05-05T00:37:21.637Z,101986.38
2023-05-05T00:37:35.254Z,101981.84
2023-05-05T00:37:47.783Z,101981.00
2023-05-05T00:38:00.366Z,101986.38
2023-05-05T00:38:13.000Z,101990.84
2023-05-05T00:38:25.777Z,101990.00
2023-05-05T00:38:38.544Z,101990.00
2023-05-05T00:38:51.088Z,101989.13
2023-05-05T00:39:04.790Z,101990.00
2023-05-05T00:39:17.305Z,101990.00
2023-05-05T00:39:30.604Z,101990.00
2023-05-05T00:39:44.385Z,101994.50
2023-05-05T00:39:57.430Z,101984.63
2023-05-05T00:40:11.130Z,101990.84
2023-05-05T00:40:25.416Z,101995.34
2023-05-05T00:40:38.030Z,101987.31
2023-05-05T00:40:50.613Z,101991.81
2023-05-05T00:41:03.352Z,101984.63
2023-05-05T00:41:15.994Z,101998.88
2023-05-05T00:41:28.812Z,101986.38
2023-05-05T00:41:41.634Z,101991.72
2023-05-05T00:41:55.181Z,101979.25
2023-05-05T00:42:08.004Z,101986.38
2023-05-05T00:42:20.568Z,101984.63
2023-05-05T00:42:39.760Z,101985.47
2023-05-05T00:42:52.568Z,101984.63
2023-05-05T00:43:05.372Z,101986.47
2023-05-05T00:43:17.922Z,101984.63
2023-05-05T00:43:31.464Z,101983.78
2023-05-05T00:43:44.006Z,101990.00
2023-05-05T00:43:56.821Z,101982.91
2023-05-05T00:44:09.444Z,101987.41
2023-05-05T00:44:36.009Z,101984.72
2023-05-05T00:44:48.546Z,101979.34
2023-05-05T00:45:01.125Z,101982.91
2023-05-05T00:45:15.073Z,101982.03
2023-05-05T00:45:30.263Z,101977.56
2023-05-05T00:45:47.517Z,101985.59
2023-05-05T00:46:02.264Z,101981.19
2023-05-05T00:46:26.268Z,101986.56
2023-05-05T00:46:40.568Z,101974.97
2023-05-05T00:46:54.341Z,101982.91
2023-05-05T00:47:08.370Z,101983.88
2023-05-05T00:47:21.159Z,101986.56
2023-05-05T00:47:33.748Z,101992.78
2023-05-05T00:47:49.072Z,101983.00
2023-05-05T00:48:01.943Z,101983.78
2023-05-05T00:48:16.977Z,101986.56
2023-05-05T00:48:30.709Z,101988.28
2023-05-05T00:48:43.294Z,101984.72
2023-05-05T00:48:57.735Z,101986.56
2023-05-05T00:49:10.618Z,101982.16
2023-05-05T00:49:23.191Z,101989.22
2023-05-05T00:49:36.295Z,101991.06
2023-05-05T00:49:50.140Z,101991.06
2023-05-05T00:50:03.783Z,101991.91
2023-05-05T00:50:22.921Z,101995.56
2023-05-05T00:50:36.453Z,101977.75
2023-05-05T00:50:49.065Z,101982.25
2023-05-05T00:51:01.689Z,101993.00
2023-05-05T00:51:16.704Z,101985.88
2023-05-05T00:51:31.349Z,101991.16
2023-05-05T00:51:43.940Z,101993.00
2023-05-05T00:51:56.666Z,101991.25
2023-05-05T00:52:09.870Z,101994.91
2023-05-05T00:52:22.495Z,101992.22
2023-05-05T00:52:36.217Z,101986.88
2023-05-05T00:52:49.294Z,101996.63
2023-05-05T00:53:03.725Z,101995.78
2023-05-05T00:53:17.274Z,101993.09
2023-05-05T00:53:30.162Z,101991.25
2023-05-05T00:53:45.080Z,101992.22
2023-05-05T00:53:57.743Z,101994.91
2023-05-05T00:54:10.408Z,101983.34
2023-05-05T00:54:23.036Z,101985.03
2023-05-05T00:54:36.315Z,101987.72
2023-05-05T00:54:49.132Z,101991.38
2023-05-05T00:55:02.057Z,101984.19
2023-05-05T00:55:15.731Z,101990.53
2023-05-05T00:55:28.929Z,101982.47
2023-05-05T00:55:41.787Z,101992.22
2023-05-05T00:55:54.555Z,101977.97
2023-05-05T00:56:07.435Z,101988.69
2023-05-05T00:56:22.037Z,101991.38
2023-05-05T00:56:35.608Z,101996.63
2023-05-05T00:56:50.057Z,101985.03
2023-05-05T00:57:03.070Z,101985.03
2023-05-05T00:57:16.002Z,101992.13
2023-05-05T00:57:28.978Z,101990.41
2023-05-05T00:57:41.972Z,101992.13
2023-05-05T00:57:54.787Z,101984.09
2023-05-05T00:58:08.882Z,101994.81
2023-05-05T00:58:21.536Z,101987.63
2023-05-05T00:58:34.924Z,101987.63
2023-05-05T00:58:48.061Z,101990.22
2023-05-05T00:59:02.459Z,101989.31
2023-05-05T00:59:15.028Z,101980.44
2023-05-05T00:59:28.324Z,101984.84
2023-05-05T00:59:42.177Z,101977.75
2023-05-05T00:59:55.987Z,101977.75
2023-05-05T01:00:10.088Z,101983.13
2023-05-05T01:00:23.095Z,101978.72
2023-05-05T01:00:37.081Z,101988.47
2023-05-05T01:00:50.584Z,101976.03
2023-05-05T01:01:04.352Z,101987.63
2023-05-05T01:01:17.753Z,101971.63
2023-05-05T01:01:30.345Z,101981.41
2023-05-05T01:01:43.273Z,101981.41
2023-05-05T01:01:55.965Z,101983.13
2023-05-05T01:02:09.474Z,101981.41
2023-05-05T01:02:22.779Z,101976.03
2023-05-05T01:02:36.729Z,101981.41
2023-05-05T01:02:49.442Z,101976.91
2023-05-05T01:03:02.186Z,101981.41
2023-05-05T01:03:15.520Z,101986.78
2023-05-05T01:03:28.285Z,101982.25
2023-05-05T01:03:41.746Z,101978.72
2023-05-05T01:03:55.647Z,101976.91
2023-05-05T01:04:08.193Z,101976.03
2023-05-05T01:04:20.764Z,101976.03
2023-05-05T01:04:33.771Z,101973.34
2023-05-05T01:04:46.293Z,101979.56
2023-05-05T01:04:58.843Z,101979.56
2023-05-05T01:05:13.380Z,101975.91
2023-05-05T01:05:34.068Z,101978.72
2023-05-05T01:05:55.332Z,101977.75
2023-05-05T01:06:18.735Z,101978.59
2023-05-05T01:06:42.217Z,101987.63
2023-05-05T01:07:08.951Z,101982.25
2023-05-05T01:07:32.987Z,101980.44
2023-05-05T01:07:56.990Z,101983.13
2023-05-05T01:08:27.985Z,101986.78
2023-05-05T01:08:51.283Z,101988.47
2023-05-05T01:09:12.896Z,101987.63
2023-05-05T01:09:36.407Z,101982.25
2023-05-05T01:10:11.014Z,101984.09
2023-05-05T01:10:38.597Z,101985.88
2023-05-05T01:10:55.115Z,101985.03
2023-05-05T01:11:14.389Z,101979.81
2023-05-05T01:11:36.765Z,101988.69
2023-05-05T01:11:56.714Z,101986.00
2023-05-05T01:12:19.642Z,101983.34
2023-05-05T01:12:41.543Z,101989.56
2023-05-05T01:13:04.589Z,101989.56
2023-05-05T01:13:29.961Z,101983.34
2023-05-05T01:13:50.392Z,101982.34
2023-05-05T01:14:12.544Z,101980.53
2023-05-05T01:14:34.278Z,101981.41
2023-05-05T01:14:53.018Z,101986.78
2023-05-05T01:15:14.262Z,101989.44
2023-05-05T01:15:33.056Z,101981.41
2023-05-05T01:15:53.460Z,101988.47
2023-05-05T01:16:12.965Z,101996.53
2023-05-05T01:16:29.042Z,101993.84
2023-05-05T01:16:56.005Z,101995.56
2023-05-05T01:17:17.298Z,101997.28
2023-05-05T01:17:39.618Z,101993.84
2023-05-05T01:17:57.475Z,101995.56
2023-05-05T01:18:14.407Z,101994.59
2023-05-05T01:18:32.547Z,101990.22
2023-05-05T01:18:52.178Z,101991.91
2023-05-05T01:19:14.849Z,101989.22
2023-05-05T01:19:53.597Z,101992.78
2023-05-05T01:20:17.145Z,101993.66
2023-05-05T01:20:37.224Z,101999.03
2023-05-05T01:20:58.704Z,101996.34
2023-05-05T01:21:15.515Z,101997.28
2023-05-05T01:21:33.860Z,101997.28
2023-05-05T01:21:51.802Z,101997.28
2023-05-05T01:22:09.029Z,101999.97
2023-05-05T01:22:27.209Z,101996.53
2023-05-05T01:22:43.976Z,101995.66
2023-05-05T01:23:00.972Z,101995.66
2023-05-05T01:23:23.039Z,101995.66
2023-05-05T01:24:07.890Z,101994.06
2023-05-05T01:24:52.659Z,101994.06
2023-05-05T01:25:27.039Z,101997.69
2023-05-05T01:26:02.612Z,101995.97
2023-05-05T01:26:35.936Z,101997.91
2023-05-05T01:26:59.194Z,101989.00
2023-05-05T01:27:34.271Z,101993.50
2023-05-05T01:28:02.951Z,101986.50
2023-05-05T01:28:28.053Z,101981.16
2023-05-05T01:29:03.207Z,101985.66
2023-05-05T01:29:35.503Z,101985.66
2023-05-05T01:30:03.112Z,101982.97
2023-05-05T01:30:28.673Z,101985.66
2023-05-05T01:31:03.620Z,101982.00
2023-05-05T01:31:53.164Z,101987.38
2023-05-05T01:32:09.806Z,101978.59
2023-05-05T01:32:26.839Z,101983.97
2023-05-05T01:32:47.360Z,101977.72
2023-05-05T01:33:06.621Z,101979.53
2023-05-05T01:33:25.604Z,101980.41
2023-05-05T01:33:46.057Z,101982.22
2023-05-05T01:34:03.890Z,101982.22
2023-05-05T01:34:19.565Z,101981.38
2023-05-05T01:34:35.654Z,101976.84
2023-05-05T01:34:55.047Z,101976.84
2023-05-05T01:35:13.981Z,101981.38
2023-05-05T01:35:31.893Z,101985.75
2023-05-05T01:35:50.163Z,101985.88
2023-05-05T01:36:07.660Z,101980.53
2023-05-05T01:36:27.860Z,101978.78
2023-05-05T01:36:44.626Z,101984.16
2023-05-05T01:37:10.223Z,101986.81
2023-05-05T01:37:24.917Z,101980.53
2023-05-05T01:37:46.090Z,101985.88
2023-05-05T01:38:04.987Z,101986.81
2023-05-05T01:38:21.728Z,101990.38
2023-05-05T01:38:40.575Z,101984.16
2023-05-05T01:38:58.138Z,101988.56
2023-05-05T01:39:15.126Z,101989.50
2023-05-05T01:39:33.480Z,101985.13
2023-05-05T01:39:50.220Z,101978.78
2023-05-05T01:40:09.574Z,101982.44
2023-05-05T01:40:26.880Z,101987.81
2023-05-05T01:40:43.831Z,101975.34
2023-05-05T01:41:03.785Z,101976.19
2023-05-05T01:41:22.145Z,101980.72
2023-05-05T01:41:42.782Z,101980.72
2023-05-05T01:42:00.238Z,101985.22
2023-05-05T01:42:15.015Z,101980.72
2023-05-05T01:42:30.103Z,101986.06
2023-05-05T01:42:43.867Z,101981.56
2023-05-05T01:42:58.432Z,101986.91
2023-05-05T01:43:13.648Z,101982.44
2023-05-05T01:43:30.757Z,101986.06
2023-05-05T01:43:47.123Z,101993.25
2023-05-05T01:44:03.017Z,101991.44
2023-05-05T01:44:16.802Z,101989.72
2023-05-05T01:44:31.021Z,101987.03
2023-05-05T01:44:44.943Z,101987.13
2023-05-05T01:44:59.886Z,101989.72
2023-05-05T01:45:14.670Z,101984.38
2023-05-05T01:45:32.527Z,101995.09
2023-05-05T01:45:46.938Z,101985.31
2023-05-05T01:46:00.857Z,101982.63
2023-05-05T01:46:15.321Z,101981.78
2023-05-05T01:46:29.402Z,101988.00
2023-05-05T01:46:42.066Z,101983.59
2023-05-05T01:46:55.908Z,101990.69
2023-05-05T01:47:12.508Z,101988.00
2023-05-05T01:47:25.616Z,101980.94
2023-05-05T01:47:40.338Z,101987.13
2023-05-05T01:47:55.866Z,101986.28
2023-05-05T01:48:11.672Z,101986.28
2023-05-05T01:48:25.989Z,101989.81
2023-05-05T01:48:41.770Z,101986.28
2023-05-05T01:48:56.879Z,101983.59
2023-05-05T01:49:11.791Z,101990.69
2023-05-05T01:49:26.076Z,101988.13
2023-05-05T01:49:39.722Z,101986.28
2023-05-05T01:49:52.773Z,101985.31
2023-05-05T01:50:08.595Z,101987.22
2023-05-05T01:50:22.395Z,101987.22
2023-05-05T01:50:37.036Z,101989.91
2023-05-05T01:50:52.298Z,101986.28
2023-05-05T01:51:07.485Z,101981.03
2023-05-05T01:51:24.501Z,101995.28
2023-05-05T01:51:38.373Z,101988.13
2023-05-05T01:51:52.341Z,101984.56
2023-05-05T01:52:06.934Z,101990.81
2023-05-05T01:52:20.740Z,101991.66
2023-05-05T01:52:36.906Z,101985.44
2023-05-05T01:52:51.540Z,101983.59
2023-05-05T01:53:06.287Z,101979.19
2023-05-05T01:53:21.239Z,101977.38
2023-05-05T01:53:35.576Z,101977.38
2023-05-05T01:53:49.681Z,101980.94
2023-05-05T01:54:08.795Z,101981.78
2023-05-05T01:54:24.213Z,101972.88
2023-05-05T01:54:39.258Z,101981.78
2023-05-05T01:54:53.282Z,101983.59
2023-05-05T01:55:08.567Z,101986.28
2023-05-05T01:55:24.641Z,101978.25
2023-05-05T01:55:40.219Z,101988.97
2023-05-05T01:55:54.555Z,101988.13
2023-05-05T01:56:09.606Z,101979.19
2023-05-05T01:56:24.007Z,101982.75
2023-05-05T01:56:39.921Z,101979.19
2023-05-05T01:56:54.862Z,101980.94
2023-05-05T01:57:10.037Z,101982.75
2023-05-05T01:57:26.521Z,101988.13
2023-05-05T01:57:41.884Z,101979.19
2023-05-05T01:57:56.162Z,101983.59
2023-05-05T01:58:11.107Z,101977.38
2023-05-05T01:58:27.019Z,101984.47
2023-05-05T01:58:43.014Z,101986.28
2023-05-05T01:58:56.554Z,101975.56
2023-05-05T01:59:11.184Z,101986.28
2023-05-05T01:59:26.388Z,101981.78
2023-05-05T01:59:40.076Z,101977.38
2023-05-05T01:59:53.818Z,101980.06
2023-05-05T02:00:10.646Z,101984.56
2023-05-05T02:00:26.974Z,101984.56
2023-05-05T02:00:41.508Z,101986.28
2023-05-05T02:00:57.049Z,101979.19
2023-05-05T02:01:11.263Z,101979.19
2023-05-05T02:01:26.997Z,101984.56
2023-05-05T02:01:44.659Z,101988.22
2023-05-05T02:01:59.686Z,101980.16
2023-05-05T02:02:15.723Z,101989.06
2023-05-05T02:02:29.292Z,101982.84
2023-05-05T02:02:44.689Z,101987.34
2023-05-05T02:02:59.845Z,101986.47
2023-05-05T02:03:14.967Z,101978.44
2023-05-05T02:03:31.458Z,101986.47
2023-05-05T02:03:47.068Z,101986.47
2023-05-05T02:04:02.003Z,101980.25
2023-05-05T02:04:17.931Z,101986.47
2023-05-05T02:04:33.178Z,101987.44
2023-05-05T02:04:46.539Z,101984.78
2023-05-05T02:05:01.230Z,101988.31
2023-05-05T02:05:16.276Z,101987.44
2023-05-05T02:05:30.417Z,101986.59
2023-05-05T02:05:44.657Z,101988.31
2023-05-05T02:06:00.532Z,101983.91
2023-05-05T02:06:14.976Z,101985.72
2023-05-05T02:06:32.436Z,101981.34
2023-05-05T02:06:50.384Z,101984.00
2023-05-05T02:07:05.043Z,101984.78
2023-05-05T02:07:18.358Z,101982.19
2023-05-05T02:07:33.251Z,101986.69
2023-05-05T02:07:46.209Z,101984.00
2023-05-05T02:08:00.371Z,101986.69
2023-05-05T02:08:14.362Z,101984.97
2023-05-05T02:08:28.820Z,101985.84
2023-05-05T02:08:43.352Z,101987.63
2023-05-05T02:08:58.402Z,101984.97
2023-05-05T02:09:13.058Z,101986.91
2023-05-05T02:09:29.266Z,101985.94
2023-05-05T02:09:44.178Z,101983.25
2023-05-05T02:09:57.391Z,101986.03
2023-05-05T02:10:13.528Z,101978.75
2023-05-05T02:10:27.604Z,101986.91
2023-05-05T02:10:41.060Z,101980.66
2023-05-05T02:10:55.757Z,101982.41
2023-05-05T02:11:10.659Z,101989.59
2023-05-05T02:11:25.109Z,101976.19
2023-05-05T02:11:39.119Z,101981.53
2023-05-05T02:11:52.488Z,101986.03
2023-05-05T02:12:07.401Z,101985.16
2023-05-05T02:12:21.108Z,101985.25
2023-05-05T02:12:36.002Z,101981.72
2023-05-05T02:12:50.319Z,101986.16
2023-05-05T02:13:05.222Z,101991.50
2023-05-05T02:13:18.938Z,101988.84
2023-05-05T02:13:32.984Z,101982.59
2023-05-05T02:13:47.467Z,101986.16
2023-05-05T02:14:01.322Z,101991.50
2023-05-05T02:14:16.163Z,101988.84
2023-05-05T02:14:31.561Z,101986.16
2023-05-05T02:14:46.397Z,101987.94
2023-05-05T02:15:01.457Z,101992.47
2023-05-05T02:15:15.541Z,101993.44
2023-05-05T02:15:28.840Z,101988.06
2023-05-05T02:15:44.013Z,101989.00
2023-05-05T02:15:57.747Z,101995.22
2023-05-05T02:16:12.655Z,101988.06
2023-05-05T02:16:25.494Z,101990.75
2023-05-05T02:16:41.209Z,101989.00
2023-05-05T02:16:55.640Z,101993.44
2023-05-05T02:17:09.739Z,101997.91
2023-05-05T02:17:25.943Z,101991.69
2023-05-05T02:17:42.409Z,101986.34
2023-05-05T02:17:57.961Z,101991.78
2023-05-05T02:18:11.739Z,101995.34
2023-05-05T02:18:25.972Z,101996.22
2023-05-05T02:18:38.937Z,101989.00
2023-05-05T02:18:53.675Z,101995.22
2023-05-05T02:19:07.235Z,101993.53
2023-05-05T02:19:25.392Z,101999.75
2023-05-05T02:19:40.218Z,101998.03
2023-05-05T02:19:54.551Z,101994.59
2023-05-05T02:20:10.992Z,101998.13
2023-05-05T02:20:24.578Z,101991.91
2023-05-05T02:20:40.422Z,101994.59
2023-05-05T02:20:53.495Z,101988.38
2023-05-05T02:21:07.581Z,101998.22
2023-05-05T02:21:20.923Z,101991.16
2023-05-05T02:21:34.483Z,101991.06
2023-05-05T02:21:47.106Z,101991.16
2023-05-05T02:22:00.221Z,101990.31
2023-05-05T02:22:12.732Z,101991.16
2023-05-05T02:22:25.484Z,101984.06
2023-05-05T02:22:39.106Z,101988.56
2023-05-05T02:22:51.682Z,101994.78
2023-05-05T02:23:05.730Z,101992.09
2023-05-05T02:23:18.335Z,101994.78
2023-05-05T02:23:30.961Z,101991.25
2023-05-05T02:23:43.949Z,101995.75
2023-05-05T02:23:56.689Z,101990.41
2023-05-05T02:24:10.533Z,101993.94
2023-05-05T02:24:23.476Z,101993.94
2023-05-05T02:24:36.160Z,101982.34
2023-05-05T02:24:48.878Z,101987.72
2023-05-05T02:25:01.468Z,101989.53
2023-05-05T02:25:14.642Z,101995.75
2023-05-05T02:25:32.510Z,101994.91
2023-05-05T02:25:50.898Z,101985.97
2023-05-05T02:26:07.925Z,101990.47
2023-05-05T02:26:22.671Z,101984.28
2023-05-05T02:26:39.255Z,101985.13
2023-05-05T02:26:54.614Z,101984.28
2023-05-05T02:27:09.520Z,101990.56
2023-05-05T02:27:24.407Z,101990.56
2023-05-05T02:27:39.372Z,101990.56
2023-05-05T02:27:57.692Z,101985.34
2023-05-05T02:28:15.619Z,101990.69
2023-05-05T02:28:35.498Z,101984.47
2023-05-05T02:28:53.696Z,101985.44
2023-05-05T02:29:09.656Z,101993.47
2023-05-05T02:29:28.834Z,101990.78
2023-05-05T02:29:47.890Z,101987.25
2023-05-05T02:30:04.736Z,101992.63
2023-05-05T02:30:19.855Z,101988.09
2023-05-05T02:30:35.952Z,101994.31
2023-05-05T02:30:57.569Z,101987.16
2023-05-05T02:31:13.932Z,101988.97
2023-05-05T02:31:29.028Z,101987.25
2023-05-05T02:31:46.668Z,101988.03
2023-05-05T02:32:04.360Z,101996.06
2023-05-05T02:32:21.749Z,101991.56
2023-05-05T02:32:40.346Z,101991.56
2023-05-05T02:32:59.098Z,101993.25
2023-05-05T02:33:16.613Z,101987.03
2023-05-05T02:33:33.048Z,101995.09
2023-05-05T02:33:48.501Z,101995.09
2023-05-05T02:34:03.728Z,101990.69
2023-05-05T02:34:22.711Z,101989.84
2023-05-05T02:34:38.572Z,101992.53
2023-05-05T02:34:53.220Z,101990.78
2023-05-05T02:35:12.498Z,101987.25
2023-05-05T02:35:34.070Z,101990.88
2023-05-05T02:35:50.762Z,101991.84
2023-05-05T02:36:09.943Z,101993.78
2023-05-05T02:36:26.032Z,101992.03
2023-05-05T02:36:40.960Z,101990.34
2023-05-05T02:36:58.500Z,101985.06
2023-05-05T02:37:16.753Z,101985.94
2023-05-05T02:37:31.724Z,101991.31
2023-05-05T02:37:48.480Z,101985.94
2023-05-05T02:38:05.528Z,101987.75
2023-05-05T02:38:18.884Z,101986.88
2023-05-05T02:38:33.587Z,101975.31
2023-05-05T02:38:48.697Z,101989.56
2023-05-05T02:39:04.825Z,101985.06
2023-05-05T02:39:25.102Z,101986.03
2023-05-05T02:39:43.723Z,101985.28
2023-05-05T02:40:01.704Z,101990.63
2023-05-05T02:40:17.866Z,101985.28
2023-05-05T02:40:33.013Z,101989.78
2023-05-05T02:40:50.611Z,101983.53
2023-05-05T02:41:04.467Z,101991.56
2023-05-05T02:41:20.080Z,101986.22
2023-05-05T02:41:36.170Z,101988.03
2023-05-05T02:41:50.463Z,101993.41
2023-05-05T02:42:04.804Z,101988.91
2023-05-05T02:42:21.865Z,101986.22
2023-05-05T02:42:38.311Z,101988.91
2023-05-05T02:42:54.446Z,101988.91
2023-05-05T02:43:11.371Z,101990.63
2023-05-05T02:43:25.915Z,101987.09
2023-05-05T02:43:41.175Z,101984.44
2023-05-05T02:43:58.204Z,101992.56
2023-05-05T02:44:13.964Z,101987.28
2023-05-05T02:44:29.203Z,101989.97
2023-05-05T02:44:42.741Z,101991.78
2023-05-05T02:44:57.753Z,101986.44
2023-05-05T02:45:13.133Z,101990.94
2023-05-05T02:45:27.614Z,101994.47
2023-05-05T02:45:41.215Z,101991.78
2023-05-05T02:45:53.759Z,101987.41
2023-05-05T02:46:08.085Z,101991.03
2023-05-05T02:46:20.913Z,101992.78
2023-05-05T02:46:33.790Z,101994.56
2023-05-05T02:46:46.752Z,101991.03
2023-05-05T02:46:59.557Z,101996.38
2023-05-05T02:47:13.155Z,101985.66
2023-05-05T02:47:34.276Z,101991.03
2023-05-05T02:47:48.596Z,101994.69
2023-05-05T02:48:03.114Z,101994.69
2023-05-05T02:48:16.049Z,101994.69
2023-05-05T02:48:29.749Z,101992.00
2023-05-05T02:48:43.322Z,101996.47
2023-05-05T02:48:56.175Z,101992.00
2023-05-05T02:49:08.839Z,101989.31
2023-05-05T02:49:21.668Z,101995.63
2023-05-05T02:49:34.266Z,101992.00
2023-05-05T02:49:47.290Z,101991.13
2023-05-05T02:50:00.815Z,101989.31
2023-05-05T02:50:13.391Z,101992.84
2023-05-05T02:50:25.920Z,101995.53
2023-05-05T02:50:38.899Z,101990.28
2023-05-05T02:50:51.828Z,101989.31
2023-05-05T02:51:04.791Z,101997.38
2023-05-05T02:51:18.318Z,101994.69
2023-05-05T02:51:30.868Z,101990.19
2023-05-05T02:51:43.651Z,101996.38
2023-05-05T02:51:57.958Z,101991.03
2023-05-05T02:52:10.654Z,101995.53
2023-05-05T02:52:23.155Z,101992.78
2023-05-05T02:52:36.548Z,101991.03
2023-05-05T02:52:50.224Z,101991.03
2023-05-05T02:53:02.938Z,101990.09
2023-05-05T02:53:15.778Z,101994.56
2023-05-05T02:53:29.293Z,101992.78
2023-05-05T02:53:42.063Z,101998.13
2023-05-05T02:53:54.869Z,101991.03
2023-05-05T02:54:08.698Z,101991.88
2023-05-05T02:54:21.624Z,101992.78
2023-05-05T02:54:34.349Z,101995.53
2023-05-05T02:54:46.978Z,101991.88